createdAt,value
2023-03-30T00:06:26.939Z,97494.47
2023-03-30T00:16:29.280Z,97489.94
2023-03-30T00:26:31.859Z,97497.81
2023-03-30T00:36:37.614Z,97490.38
2023-03-30T00:46:39.940Z,97486.41
2023-03-30T00:56:42.378Z,97474.69
2023-03-30T01:06:49.381Z,97486.28
2023-03-30T01:17:13.871Z,97495.44
2023-03-30T01:27:50.191Z,97481.09
2023-03-30T01:37:55.071Z,97481.97
2023-03-30T01:48:31.551Z,97451.75
2023-03-30T01:58:40.171Z,97416.22
2023-03-30T02:08:46.622Z,97393.81
2023-03-30T02:18:49.031Z,97383.25
2023-03-30T02:28:52.492Z,97343.94
2023-03-30T02:39:16.257Z,97331.38
2023-03-30T02:49:42.334Z,97321.69
2023-03-30T02:59:59.121Z,97289.66
2023-03-30T03:10:01.752Z,97288.91
2023-03-30T03:20:05.297Z,97283.56
2023-03-30T03:30:08.390Z,97257.34
2023-03-30T03:40:12.214Z,97256.03
2023-03-30T03:50:14.709Z,97256.75
2023-03-30T04:00:17.565Z,97258.69
2023-03-30T04:10:21.740Z,97245.41
2023-03-30T04:20:26.082Z,97243.00
2023-03-30T04:30:30.877Z,97225.31
2023-03-30T04:40:34.406Z,97233.87
2023-03-30T04:50:36.944Z,97240.72
2023-03-30T05:00:39.813Z,97244.56
2023-03-30T05:10:42.388Z,97256.81
2023-03-30T05:20:44.863Z,97253.38
2023-03-30T05:30:47.406Z,97240.91
2023-03-30T05:40:54.090Z,97234.16
2023-03-30T05:50:57.503Z,97225.53
2023-03-30T06:01:01.022Z,97361.63
2023-03-30T06:11:05.025Z,97401.00
2023-03-30T06:21:08.655Z,97399.59
2023-03-30T06:31:12.568Z,97421.06
2023-03-30T06:41:15.797Z,97447.87
2023-03-30T06:51:19.615Z,97433.75
2023-03-30T07:01:22.471Z,97436.22
2023-03-30T07:11:25.279Z,97438.97
2023-03-30T07:21:27.949Z,97443.34
2023-03-30T07:31:30.826Z,97471.44
2023-03-30T07:41:33.363Z,97481.91
2023-03-30T07:51:36.048Z,97506.81
2023-03-30T08:01:39.225Z,97511.16
2023-03-30T08:11:42.333Z,97524.47
2023-03-30T08:21:44.733Z,97512.75
2023-03-30T08:31:48.014Z,97541.03
2023-03-30T08:42:06.469Z,97585.19
2023-03-30T08:52:19.945Z,97592.37
2023-03-30T09:02:36.757Z,97588.28
2023-03-30T09:13:00.991Z,97569.34
2023-03-30T09:23:04.420Z,97566.84
2023-03-30T09:33:39.287Z,97575.16
2023-03-30T09:43:46.564Z,97584.47
2023-03-30T09:54:00.593Z,97610.72
2023-03-30T10:04:13.011Z,97628.25
2023-03-30T10:14:38.183Z,97656.81
2023-03-30T10:24:50.288Z,97676.91
2023-03-30T10:35:00.563Z,97689.09
2023-03-30T10:45:07.543Z,97696.38
2023-03-30T10:55:18.929Z,97690.19
2023-03-30T11:05:29.222Z,97695.03
2023-03-30T11:16:05.508Z,97715.47
2023-03-30T11:26:12.861Z,97723.28
2023-03-30T11:36:36.558Z,97728.44
2023-03-30T11:46:53.440Z,97764.09
2023-03-30T11:57:17.693Z,97741.09
2023-03-30T12:07:23.004Z,97732.09
2023-03-30T12:17:42.716Z,97733.91
2023-03-30T12:27:59.151Z,97716.78
2023-03-30T12:38:06.339Z,97701.03
2023-03-30T12:48:47.162Z,97670.25
2023-03-30T12:59:05.934Z,97656.09
2023-03-30T13:09:08.538Z,97639.53
2023-03-30T13:19:32.575Z,97622.75
2023-03-30T13:29:35.205Z,97605.69
2023-03-30T13:39:50.860Z,97584.56
2023-03-30T13:50:06.856Z,97568.94
2023-03-30T14:10:47.059Z,97555.19
2023-03-30T14:20:56.897Z,97540.03
2023-03-30T14:31:11.903Z,97553.47
2023-03-30T14:41:24.285Z,97554.34
2023-03-30T14:51:41.178Z,97565.06
2023-03-30T15:01:44.628Z,97576.28
2023-03-30T15:11:53.972Z,97572.66
2023-03-30T15:22:03.498Z,97553.22
2023-03-30T15:32:08.066Z,97550.44
2023-03-30T15:42:10.899Z,97541.00
2023-03-30T15:52:20.352Z,97547.28
2023-03-30T16:02:36.502Z,97536.59
2023-03-30T16:12:44.301Z,97527.59
2023-03-30T16:22:47.987Z,97524.50
2023-03-30T16:32:50.637Z,97531.44
2023-03-30T16:42:53.670Z,97515.13
2023-03-30T16:52:56.304Z,97517.44
2023-03-30T17:02:58.989Z,97515.03
2023-03-30T17:13:02.023Z,97519.69
2023-03-30T17:23:05.582Z,97522.88
2023-03-30T17:33:13.016Z,97527.78
2023-03-30T17:43:16.040Z,97526.75
2023-03-30T17:53:20.653Z,97540.31
2023-03-30T18:03:29.744Z,97542.59
2023-03-30T18:13:32.817Z,97549.84
2023-03-30T18:23:36.381Z,97538.78
2023-03-30T18:33:39.714Z,97547.56
2023-03-30T18:43:42.534Z,97557.25
2023-03-30T18:53:44.994Z,97562.94
2023-03-30T19:03:47.835Z,97561.59
2023-03-30T19:13:50.556Z,97555.94
2023-03-30T19:23:53.383Z,97547.22
2023-03-30T19:33:56.088Z,97542.53
2023-03-30T19:43:58.930Z,97541.31
2023-03-30T19:54:01.849Z,97534.28
2023-03-30T20:04:05.381Z,97522.91
2023-03-30T20:14:09.266Z,97523.44
2023-03-30T20:24:12.262Z,97506.13
2023-03-30T20:34:15.805Z,97487.78
2023-03-30T20:44:18.532Z,97495.69
2023-03-30T20:54:21.457Z,97487.88
2023-03-30T21:04:24.114Z,97478.72
2023-03-30T21:14:26.993Z,97458.50
2023-03-30T21:24:29.871Z,97463.16
2023-03-30T21:34:32.272Z,97442.06
2023-03-30T21:44:35.863Z,97436.72
2023-03-30T21:54:38.455Z,97423.78
2023-03-30T22:04:44.043Z,97414.03
2023-03-30T22:14:46.454Z,97391.81
2023-03-30T22:24:48.861Z,97380.06
2023-03-30T22:34:51.820Z,97379.53
2023-03-30T22:44:54.146Z,97364.47
2023-03-30T22:54:56.653Z,97347.16
2023-03-30T23:04:59.259Z,97324.22
2023-03-30T23:15:01.787Z,97297.53
2023-03-30T23:25:05.679Z,97279.50
2023-03-30T23:35:08.657Z,97271.72
2023-03-30T23:45:11.301Z,97276.91
2023-03-30T23:55:13.829Z,97356.22
